sensor_id;sensor_type;location;lat;lon;timestamp;P1;durP1;ratioP1;P2;durP2;ratioP2
17727;SDS011;8984;49.268;12.302;2023-05-23T00:01:59;13.47;;;9.83;;
17727;SDS011;8984;49.268;12.302;2023-05-23T00:04:25;16.30;;;9.90;;
17727;SDS011;8984;49.268;12.302;2023-05-23T00:06:54;9.27;;;8.30;;
17727;SDS011;8984;49.268;12.302;2023-05-23T00:09:20;11.67;;;9.33;;
17727;SDS011;8984;49.268;12.302;2023-05-23T00:11:47;11.30;;;10.10;;
17727;SDS011;8984;49.268;12.302;2023-05-23T00:14:14;10.80;;;9.43;;
17727;SDS011;8984;49.268;12.302;2023-05-23T00:16:41;10.57;;;9.30;;
17727;SDS011;8984;49.268;12.302;2023-05-23T00:19:10;11.77;;;9.83;;
17727;SDS011;8984;49.268;12.302;2023-05-23T00:21:38;12.63;;;10.17;;
17727;SDS011;8984;49.268;12.302;2023-05-23T00:24:07;12.80;;;10.00;;
17727;SDS011;8984;49.268;12.302;2023-05-23T00:26:34;11.83;;;10.47;;
17727;SDS011;8984;49.268;12.302;2023-05-23T00:29:01;11.70;;;10.50;;
17727;SDS011;8984;49.268;12.302;2023-05-23T00:31:28;12.17;;;8.80;;
17727;SDS011;8984;49.268;12.302;2023-05-23T00:33:55;11.37;;;9.70;;
17727;SDS011;8984;49.268;12.302;2023-05-23T00:36:22;11.87;;;9.27;;
17727;SDS011;8984;49.268;12.302;2023-05-23T00:38:49;11.53;;;9.87;;
17727;SDS011;8984;49.268;12.302;2023-05-23T00:41:18;11.60;;;9.47;;
17727;SDS011;8984;49.268;12.302;2023-05-23T00:43:45;11.93;;;10.23;;
17727;SDS011;8984;49.268;12.302;2023-05-23T00:46:12;12.40;;;10.10;;
17727;SDS011;8984;49.268;12.302;2023-05-23T00:48:39;12.57;;;10.63;;
17727;SDS011;8984;49.268;12.302;2023-05-23T00:51:06;12.73;;;10.57;;
17727;SDS011;8984;49.268;12.302;2023-05-23T00:53:33;14.67;;;10.37;;
17727;SDS011;8984;49.268;12.302;2023-05-23T00:56:00;11.00;;;9.40;;
17727;SDS011;8984;49.268;12.302;2023-05-23T00:58:29;14.93;;;9.97;;
17727;SDS011;8984;49.268;12.302;2023-05-23T01:00:56;12.40;;;10.37;;
17727;SDS011;8984;49.268;12.302;2023-05-23T01:03:24;10.50;;;9.40;;
17727;SDS011;8984;49.268;12.302;2023-05-23T01:05:52;10.37;;;9.37;;
17727;SDS011;8984;49.268;12.302;2023-05-23T01:08:20;11.37;;;10.07;;
17727;SDS011;8984;49.268;12.302;2023-05-23T01:10:47;9.87;;;8.90;;
17727;SDS011;8984;49.268;12.302;2023-05-23T01:13:16;12.60;;;10.60;;
17727;SDS011;8984;49.268;12.302;2023-05-23T01:15:51;12.90;;;10.40;;
17727;SDS011;8984;49.268;12.302;2023-05-23T01:18:23;11.53;;;10.10;;
17727;SDS011;8984;49.268;12.302;2023-05-23T01:20:55;10.57;;;9.47;;
17727;SDS011;8984;49.268;12.302;2023-05-23T01:23:35;10.80;;;9.70;;
17727;SDS011;8984;49.268;12.302;2023-05-23T01:26:21;11.63;;;10.43;;
17727;SDS011;8984;49.268;12.302;2023-05-23T01:29:01;16.07;;;9.60;;
17727;SDS011;8984;49.268;12.302;2023-05-23T01:31:34;12.97;;;10.53;;
17727;SDS011;8984;49.268;12.302;2023-05-23T01:34:03;10.57;;;9.57;;
17727;SDS011;8984;49.268;12.302;2023-05-23T01:36:32;9.80;;;8.80;;
17727;SDS011;8984;49.268;12.302;2023-05-23T01:39:00;11.63;;;10.50;;
17727;SDS011;8984;49.268;12.302;2023-05-23T01:41:27;12.70;;;11.40;;
17727;SDS011;8984;49.268;12.302;2023-05-23T01:43:54;13.57;;;11.30;;
17727;SDS011;8984;49.268;12.302;2023-05-23T01:46:22;11.13;;;10.03;;
17727;SDS011;8984;49.268;12.302;2023-05-23T01:48:50;11.97;;;10.77;;
17727;SDS011;8984;49.268;12.302;2023-05-23T01:51:18;11.97;;;10.67;;
17727;SDS011;8984;49.268;12.302;2023-05-23T01:53:46;11.90;;;10.57;;
17727;SDS011;8984;49.268;12.302;2023-05-23T01:56:13;11.57;;;10.37;;
17727;SDS011;8984;49.268;12.302;2023-05-23T01:58:40;12.67;;;10.80;;
17727;SDS011;8984;49.268;12.302;2023-05-23T02:01:07;12.73;;;11.37;;
17727;SDS011;8984;49.268;12.302;2023-05-23T02:03:36;13.00;;;11.20;;
17727;SDS011;8984;49.268;12.302;2023-05-23T02:06:03;13.33;;;11.43;;
17727;SDS011;8984;49.268;12.302;2023-05-23T02:08:30;11.23;;;10.03;;
17727;SDS011;8984;49.268;12.302;2023-05-23T02:10:56;11.60;;;10.43;;
17727;SDS011;8984;49.268;12.302;2023-05-23T02:13:23;12.93;;;10.73;;
17727;SDS011;8984;49.268;12.302;2023-05-23T02:15:50;10.97;;;9.87;;
17727;SDS011;8984;49.268;12.302;2023-05-23T02:18:16;12.77;;;11.43;;
17727;SDS011;8984;49.268;12.302;2023-05-23T02:20:45;13.60;;;11.70;;
17727;SDS011;8984;49.268;12.302;2023-05-23T02:23:11;12.50;;;11.20;;
17727;SDS011;8984;49.268;12.302;2023-05-23T02:25:38;11.30;;;10.20;;
17727;SDS011;8984;49.268;12.302;2023-05-23T02:28:05;11.43;;;10.23;;
17727;SDS011;8984;49.268;12.302;2023-05-23T02:30:32;12.30;;;10.63;;
17727;SDS011;8984;49.268;12.302;2023-05-23T02:32:59;10.67;;;9.47;;
17727;SDS011;8984;49.268;12.302;2023-05-23T02:35:30;11.53;;;10.33;;
17727;SDS011;8984;49.268;12.302;2023-05-23T02:37:58;13.33;;;9.53;;
17727;SDS011;8984;49.268;12.302;2023-05-23T02:40:25;11.43;;;10.23;;
17727;SDS011;8984;49.268;12.302;2023-05-23T02:42:51;11.53;;;10.43;;
17727;SDS011;8984;49.268;12.302;2023-05-23T02:45:21;10.43;;;9.43;;
17727;SDS011;8984;49.268;12.302;2023-05-23T02:47:48;11.53;;;10.33;;
17727;SDS011;8984;49.268;12.302;2023-05-23T02:50:14;12.57;;;10.83;;
17727;SDS011;8984;49.268;12.302;2023-05-23T02:52:41;10.73;;;9.63;;
17727;SDS011;8984;49.268;12.302;2023-05-23T02:55:11;12.77;;;9.97;;
17727;SDS011;8984;49.268;12.302;2023-05-23T02:57:37;12.90;;;10.60;;
17727;SDS011;8984;49.268;12.302;2023-05-23T03:00:05;12.20;;;10.00;;
17727;SDS011;8984;49.268;12.302;2023-05-23T03:02:33;11.53;;;9.87;;
17727;SDS011;8984;49.268;12.302;2023-05-23T03:05:00;13.43;;;10.90;;
17727;SDS011;8984;49.268;12.302;2023-05-23T03:07:27;12.00;;;10.70;;
17727;SDS011;8984;49.268;12.302;2023-05-23T03:09:57;11.87;;;10.70;;
17727;SDS011;8984;49.268;12.302;2023-05-23T03:12:26;11.93;;;10.77;;
17727;SDS011;8984;49.268;12.302;2023-05-23T03:14:52;12.23;;;10.93;;
17727;SDS011;8984;49.268;12.302;2023-05-23T03:17:19;11.47;;;10.30;;
17727;SDS011;8984;49.268;12.302;2023-05-23T03:19:46;12.10;;;10.90;;
17727;SDS011;8984;49.268;12.302;2023-05-23T03:22:13;14.17;;;10.23;;
17727;SDS011;8984;49.268;12.302;2023-05-23T03:24:40;13.20;;;11.00;;
17727;SDS011;8984;49.268;12.302;2023-05-23T03:27:07;12.97;;;11.60;;
17727;SDS011;8984;49.268;12.302;2023-05-23T03:29:35;13.30;;;10.37;;
17727;SDS011;8984;49.268;12.302;2023-05-23T03:32:01;10.80;;;9.73;;
17727;SDS011;8984;49.268;12.302;2023-05-23T03:34:28;11.37;;;10.17;;
17727;SDS011;8984;49.268;12.302;2023-05-23T03:36:57;10.73;;;9.63;;
17727;SDS011;8984;49.268;12.302;2023-05-23T03:39:23;11.10;;;10.00;;
17727;SDS011;8984;49.268;12.302;2023-05-23T03:41:50;13.80;;;11.07;;
17727;SDS011;8984;49.268;12.302;2023-05-23T03:44:17;12.73;;;11.10;;
17727;SDS011;8984;49.268;12.302;2023-05-23T03:46:45;12.07;;;10.70;;
17727;SDS011;8984;49.268;12.302;2023-05-23T03:49:12;11.50;;;10.30;;
17727;SDS011;8984;49.268;12.302;2023-05-23T03:51:39;13.00;;;10.70;;
17727;SDS011;8984;49.268;12.302;2023-05-23T03:54:05;13.10;;;10.73;;
17727;SDS011;8984;49.268;12.302;2023-05-23T03:56:32;12.33;;;10.97;;
17727;SDS011;8984;49.268;12.302;2023-05-23T03:58:59;11.87;;;10.67;;
17727;SDS011;8984;49.268;12.302;2023-05-23T04:01:26;12.93;;;11.53;;
17727;SDS011;8984;49.268;12.302;2023-05-23T04:03:54;12.50;;;10.93;;
17727;SDS011;8984;49.268;12.302;2023-05-23T04:06:20;12.53;;;10.37;;
17727;SDS011;8984;49.268;12.302;2023-05-23T04:08:47;12.57;;;10.53;;
17727;SDS011;8984;49.268;12.302;2023-05-23T04:11:14;12.17;;;10.93;;
17727;SDS011;8984;49.268;12.302;2023-05-23T04:13:41;13.00;;;11.67;;
17727;SDS011;8984;49.268;12.302;2023-05-23T04:16:11;13.93;;;11.57;;
17727;SDS011;8984;49.268;12.302;2023-05-23T04:18:37;11.67;;;10.47;;
17727;SDS011;8984;49.268;12.302;2023-05-23T04:21:06;15.43;;;10.30;;
17727;SDS011;8984;49.268;12.302;2023-05-23T04:23:32;10.23;;;9.23;;
17727;SDS011;8984;49.268;12.302;2023-05-23T04:25:59;14.87;;;10.57;;
17727;SDS011;8984;49.268;12.302;2023-05-23T04:28:26;12.77;;;10.67;;
17727;SDS011;8984;49.268;12.302;2023-05-23T04:30:53;12.83;;;11.43;;
17727;SDS011;8984;49.268;12.302;2023-05-23T04:33:20;12.87;;;11.37;;
17727;SDS011;8984;49.268;12.302;2023-05-23T04:35:47;14.07;;;10.90;;
17727;SDS011;8984;49.268;12.302;2023-05-23T04:38:15;15.77;;;12.37;;
17727;SDS011;8984;49.268;12.302;2023-05-23T04:40:42;12.10;;;10.87;;
17727;SDS011;8984;49.268;12.302;2023-05-23T04:43:09;12.73;;;11.13;;
17727;SDS011;8984;49.268;12.302;2023-05-23T04:45:38;11.27;;;10.07;;
17727;SDS011;8984;49.268;12.302;2023-05-23T04:48:06;13.30;;;11.03;;
17727;SDS011;8984;49.268;12.302;2023-05-23T04:50:32;11.90;;;10.10;;
17727;SDS011;8984;49.268;12.302;2023-05-23T04:53:00;11.37;;;10.17;;
17727;SDS011;8984;49.268;12.302;2023-05-23T04:55:28;12.30;;;11.10;;
17727;SDS011;8984;49.268;12.302;2023-05-23T04:57:54;12.80;;;11.23;;
17727;SDS011;8984;49.268;12.302;2023-05-23T05:00:21;13.77;;;12.00;;
17727;SDS011;8984;49.268;12.302;2023-05-23T05:02:48;12.40;;;10.83;;
17727;SDS011;8984;49.268;12.302;2023-05-23T05:05:15;14.80;;;11.37;;
17727;SDS011;8984;49.268;12.302;2023-05-23T05:07:42;13.47;;;11.90;;
17727;SDS011;8984;49.268;12.302;2023-05-23T05:10:09;13.17;;;11.77;;
17727;SDS011;8984;49.268;12.302;2023-05-23T05:12:42;14.03;;;12.33;;
17727;SDS011;8984;49.268;12.302;2023-05-23T05:15:09;12.80;;;11.53;;
17727;SDS011;8984;49.268;12.302;2023-05-23T05:17:37;13.53;;;12.13;;
17727;SDS011;8984;49.268;12.302;2023-05-23T05:20:04;17.27;;;13.30;;
17727;SDS011;8984;49.268;12.302;2023-05-23T05:22:32;13.77;;;12.25;;
17727;SDS011;8984;49.268;12.302;2023-05-23T05:25:00;13.20;;;11.60;;
17727;SDS011;8984;49.268;12.302;2023-05-23T05:27:28;12.77;;;11.55;;
17727;SDS011;8984;49.268;12.302;2023-05-23T05:29:56;13.25;;;10.98;;
17727;SDS011;8984;49.268;12.302;2023-05-23T05:32:28;12.90;;;11.00;;
17727;SDS011;8984;49.268;12.302;2023-05-23T05:34:55;14.02;;;10.70;;
17727;SDS011;8984;49.268;12.302;2023-05-23T05:37:23;12.30;;;11.10;;
17727;SDS011;8984;49.268;12.302;2023-05-23T05:39:49;13.35;;;10.73;;
17727;SDS011;8984;49.268;12.302;2023-05-23T05:42:18;13.35;;;11.20;;
17727;SDS011;8984;49.268;12.302;2023-05-23T05:44:45;12.43;;;10.52;;
17727;SDS011;8984;49.268;12.302;2023-05-23T05:47:13;10.52;;;9.48;;
17727;SDS011;8984;49.268;12.302;2023-05-23T05:49:40;12.50;;;9.38;;
17727;SDS011;8984;49.268;12.302;2023-05-23T05:52:07;11.45;;;9.00;;
17727;SDS011;8984;49.268;12.302;2023-05-23T05:54:34;11.25;;;8.43;;
17727;SDS011;8984;49.268;12.302;2023-05-23T05:57:01;10.93;;;8.73;;
17727;SDS011;8984;49.268;12.302;2023-05-23T05:59:28;9.68;;;8.65;;
17727;SDS011;8984;49.268;12.302;2023-05-23T06:01:55;9.32;;;8.43;;
17727;SDS011;8984;49.268;12.302;2023-05-23T06:04:23;11.55;;;7.75;;
17727;SDS011;8984;49.268;12.302;2023-05-23T06:06:49;8.20;;;7.40;;
17727;SDS011;8984;49.268;12.302;2023-05-23T06:09:16;9.98;;;8.30;;
17727;SDS011;8984;49.268;12.302;2023-05-23T06:11:43;13.80;;;8.50;;
17727;SDS011;8984;49.268;12.302;2023-05-23T06:14:10;10.30;;;8.55;;
17727;SDS011;8984;49.268;12.302;2023-05-23T06:16:37;10.60;;;7.15;;
17727;SDS011;8984;49.268;12.302;2023-05-23T06:19:04;9.43;;;8.20;;
17727;SDS011;8984;49.268;12.302;2023-05-23T06:21:33;8.82;;;7.20;;
17727;SDS011;8984;49.268;12.302;2023-05-23T06:24:00;8.15;;;7.30;;
17727;SDS011;8984;49.268;12.302;2023-05-23T06:26:26;10.52;;;7.97;;
17727;SDS011;8984;49.268;12.302;2023-05-23T06:28:53;10.27;;;7.32;;
17727;SDS011;8984;49.268;12.302;2023-05-23T06:31:20;12.95;;;7.80;;
17727;SDS011;8984;49.268;12.302;2023-05-23T06:33:47;10.52;;;7.57;;
17727;SDS011;8984;49.268;12.302;2023-05-23T06:36:14;11.80;;;8.65;;
17727;SDS011;8984;49.268;12.302;2023-05-23T06:38:42;10.07;;;7.38;;
17727;SDS011;8984;49.268;12.302;2023-05-23T06:41:09;9.90;;;7.50;;
17727;SDS011;8984;49.268;12.302;2023-05-23T06:43:35;7.35;;;6.50;;
17727;SDS011;8984;49.268;12.302;2023-05-23T06:46:02;9.15;;;7.95;;
17727;SDS011;8984;49.268;12.302;2023-05-23T06:48:29;12.02;;;8.13;;
17727;SDS011;8984;49.268;12.302;2023-05-23T06:50:56;8.38;;;6.90;;
17727;SDS011;8984;49.268;12.302;2023-05-23T06:53:23;9.13;;;7.35;;
17727;SDS011;8984;49.268;12.302;2023-05-23T06:55:51;9.40;;;7.53;;
17727;SDS011;8984;49.268;12.302;2023-05-23T06:58:31;8.20;;;6.75;;
17727;SDS011;8984;49.268;12.302;2023-05-23T07:01:13;8.10;;;7.20;;
17727;SDS011;8984;49.268;12.302;2023-05-23T07:03:41;12.07;;;8.10;;
17727;SDS011;8984;49.268;12.302;2023-05-23T07:06:14;17.52;;;11.65;;
17727;SDS011;8984;49.268;12.302;2023-05-23T07:08:47;9.30;;;7.55;;
17727;SDS011;8984;49.268;12.302;2023-05-23T07:11:34;10.40;;;8.35;;
17727;SDS011;8984;49.268;12.302;2023-05-23T07:14:15;8.40;;;7.50;;
17727;SDS011;8984;49.268;12.302;2023-05-23T07:16:43;8.02;;;7.22;;
17727;SDS011;8984;49.268;12.302;2023-05-23T07:19:09;8.80;;;7.70;;
17727;SDS011;8984;49.268;12.302;2023-05-23T07:21:37;9.95;;;7.22;;
17727;SDS011;8984;49.268;12.302;2023-05-23T07:24:04;7.35;;;6.65;;
17727;SDS011;8984;49.268;12.302;2023-05-23T07:26:31;8.52;;;7.05;;
17727;SDS011;8984;49.268;12.302;2023-05-23T07:28:59;8.50;;;6.78;;
17727;SDS011;8984;49.268;12.302;2023-05-23T07:31:26;10.05;;;7.50;;
17727;SDS011;8984;49.268;12.302;2023-05-23T07:33:52;12.45;;;8.02;;
17727;SDS011;8984;49.268;12.302;2023-05-23T07:36:19;7.60;;;6.43;;
17727;SDS011;8984;49.268;12.302;2023-05-23T07:38:47;7.40;;;6.70;;
17727;SDS011;8984;49.268;12.302;2023-05-23T07:41:14;8.32;;;7.22;;
17727;SDS011;8984;49.268;12.302;2023-05-23T07:43:41;8.70;;;6.70;;
17727;SDS011;8984;49.268;12.302;2023-05-23T07:46:09;9.00;;;6.57;;
17727;SDS011;8984;49.268;12.302;2023-05-23T07:48:36;11.27;;;6.65;;
17727;SDS011;8984;49.268;12.302;2023-05-23T07:51:03;9.85;;;6.45;;
17727;SDS011;8984;49.268;12.302;2023-05-23T07:53:30;6.97;;;6.00;;
17727;SDS011;8984;49.268;12.302;2023-05-23T07:55:56;7.43;;;5.50;;
17727;SDS011;8984;49.268;12.302;2023-05-23T07:58:23;6.78;;;5.72;;
17727;SDS011;8984;49.268;12.302;2023-05-23T08:00:50;9.73;;;6.07;;
17727;SDS011;8984;49.268;12.302;2023-05-23T08:03:19;7.65;;;6.28;;
17727;SDS011;8984;49.268;12.302;2023-05-23T08:05:45;9.55;;;5.82;;
17727;SDS011;8984;49.268;12.302;2023-05-23T08:08:12;6.68;;;5.97;;
17727;SDS011;8984;49.268;12.302;2023-05-23T08:10:39;6.93;;;5.65;;
17727;SDS011;8984;49.268;12.302;2023-05-23T08:13:08;8.43;;;6.10;;
17727;SDS011;8984;49.268;12.302;2023-05-23T08:15:35;7.60;;;5.93;;
17727;SDS011;8984;49.268;12.302;2023-05-23T08:18:02;6.15;;;5.55;;
17727;SDS011;8984;49.268;12.302;2023-05-23T08:20:30;8.45;;;6.25;;
17727;SDS011;8984;49.268;12.302;2023-05-23T08:22:57;8.13;;;5.65;;
17727;SDS011;8984;49.268;12.302;2023-05-23T08:25:24;7.00;;;5.95;;
17727;SDS011;8984;49.268;12.302;2023-05-23T08:27:54;8.45;;;5.85;;
17727;SDS011;8984;49.268;12.302;2023-05-23T08:30:21;9.18;;;6.18;;
17727;SDS011;8984;49.268;12.302;2023-05-23T08:32:49;7.80;;;6.45;;
17727;SDS011;8984;49.268;12.302;2023-05-23T08:35:16;7.53;;;6.45;;
17727;SDS011;8984;49.268;12.302;2023-05-23T08:37:44;8.93;;;5.80;;
17727;SDS011;8984;49.268;12.302;2023-05-23T08:40:12;8.50;;;6.30;;
17727;SDS011;8984;49.268;12.302;2023-05-23T08:42:43;7.45;;;6.43;;
17727;SDS011;8984;49.268;12.302;2023-05-23T08:45:10;9.20;;;7.20;;
17727;SDS011;8984;49.268;12.302;2023-05-23T08:47:37;7.78;;;6.97;;
17727;SDS011;8984;49.268;12.302;2023-05-23T08:50:07;8.52;;;6.82;;
17727;SDS011;8984;49.268;12.302;2023-05-23T08:52:37;8.48;;;6.78;;
17727;SDS011;8984;49.268;12.302;2023-05-23T08:55:11;7.15;;;6.45;;
17727;SDS011;8984;49.268;12.302;2023-05-23T08:57:38;7.28;;;6.07;;
17727;SDS011;8984;49.268;12.302;2023-05-23T09:00:08;7.13;;;5.95;;
17727;SDS011;8984;49.268;12.302;2023-05-23T09:02:38;10.75;;;6.32;;
17727;SDS011;8984;49.268;12.302;2023-05-23T09:05:06;6.60;;;5.90;;
17727;SDS011;8984;49.268;12.302;2023-05-23T09:07:34;11.02;;;5.93;;
17727;SDS011;8984;49.268;12.302;2023-05-23T09:10:01;7.15;;;6.18;;
17727;SDS011;8984;49.268;12.302;2023-05-23T09:12:29;7.25;;;5.18;;
17727;SDS011;8984;49.268;12.302;2023-05-23T09:14:57;7.85;;;6.38;;
17727;SDS011;8984;49.268;12.302;2023-05-23T09:17:24;9.23;;;6.15;;
17727;SDS011;8984;49.268;12.302;2023-05-23T09:19:51;8.55;;;6.18;;
17727;SDS011;8984;49.268;12.302;2023-05-23T09:22:22;9.20;;;6.00;;
17727;SDS011;8984;49.268;12.302;2023-05-23T09:24:50;8.82;;;6.65;;
17727;SDS011;8984;49.268;12.302;2023-05-23T09:27:18;7.80;;;5.90;;
17727;SDS011;8984;49.268;12.302;2023-05-23T09:29:46;7.35;;;6.40;;
17727;SDS011;8984;49.268;12.302;2023-05-23T09:32:14;11.98;;;6.05;;
17727;SDS011;8984;49.268;12.302;2023-05-23T09:34:43;9.70;;;6.18;;
17727;SDS011;8984;49.268;12.302;2023-05-23T09:37:24;7.60;;;6.57;;
17727;SDS011;8984;49.268;12.302;2023-05-23T09:39:55;7.85;;;6.05;;
17727;SDS011;8984;49.268;12.302;2023-05-23T09:42:22;6.97;;;5.47;;
17727;SDS011;8984;49.268;12.302;2023-05-23T09:44:50;6.05;;;5.45;;
17727;SDS011;8984;49.268;12.302;2023-05-23T09:47:19;6.35;;;5.32;;
17727;SDS011;8984;49.268;12.302;2023-05-23T09:49:53;7.25;;;5.68;;
17727;SDS011;8984;49.268;12.302;2023-05-23T09:52:24;6.72;;;5.22;;
17727;SDS011;8984;49.268;12.302;2023-05-23T09:54:55;7.00;;;5.00;;
17727;SDS011;8984;49.268;12.302;2023-05-23T10:00:29;6.78;;;5.30;;
17727;SDS011;8984;49.268;12.302;2023-05-23T10:03:08;8.00;;;5.45;;
17727;SDS011;8984;49.268;12.302;2023-05-23T10:05:40;6.80;;;5.13;;
17727;SDS011;8984;49.268;12.302;2023-05-23T10:08:11;9.45;;;5.53;;
17727;SDS011;8984;49.268;12.302;2023-05-23T10:11:07;7.72;;;5.88;;
17727;SDS011;8984;49.268;12.302;2023-05-23T10:14:02;5.95;;;5.07;;
17727;SDS011;8984;49.268;12.302;2023-05-23T10:19:33;7.55;;;5.65;;
17727;SDS011;8984;49.268;12.302;2023-05-23T10:22:13;6.93;;;5.28;;
17727;SDS011;8984;49.268;12.302;2023-05-23T10:24:42;8.02;;;5.85;;
17727;SDS011;8984;49.268;12.302;2023-05-23T10:27:14;7.25;;;6.28;;
17727;SDS011;8984;49.268;12.302;2023-05-23T10:29:54;6.78;;;5.60;;
17727;SDS011;8984;49.268;12.302;2023-05-23T10:32:27;14.05;;;6.20;;
17727;SDS011;8984;49.268;12.302;2023-05-23T10:34:58;10.15;;;6.30;;
17727;SDS011;8984;49.268;12.302;2023-05-23T10:37:38;8.68;;;6.03;;
17727;SDS011;8984;49.268;12.302;2023-05-23T10:40:11;7.55;;;6.38;;
17727;SDS011;8984;49.268;12.302;2023-05-23T10:42:48;10.38;;;7.30;;
17727;SDS011;8984;49.268;12.302;2023-05-23T10:45:26;7.68;;;6.05;;
17727;SDS011;8984;49.268;12.302;2023-05-23T10:47:58;8.32;;;6.40;;
17727;SDS011;8984;49.268;12.302;2023-05-23T10:50:30;9.50;;;7.57;;
17727;SDS011;8984;49.268;12.302;2023-05-23T10:53:04;8.07;;;6.85;;
17727;SDS011;8984;49.268;12.302;2023-05-23T10:55:48;9.95;;;6.53;;
17727;SDS011;8984;49.268;12.302;2023-05-23T10:58:28;8.85;;;6.57;;
17727;SDS011;8984;49.268;12.302;2023-05-23T11:01:08;7.40;;;6.43;;
17727;SDS011;8984;49.268;12.302;2023-05-23T11:03:50;8.35;;;5.93;;
17727;SDS011;8984;49.268;12.302;2023-05-23T11:06:44;7.72;;;6.47;;
17727;SDS011;8984;49.268;12.302;2023-05-23T11:09:16;6.85;;;5.60;;
17727;SDS011;8984;49.268;12.302;2023-05-23T11:11:58;6.63;;;5.45;;
17727;SDS011;8984;49.268;12.302;2023-05-23T11:14:52;6.70;;;5.30;;
17727;SDS011;8984;49.268;12.302;2023-05-23T11:17:31;8.25;;;5.30;;
17727;SDS011;8984;49.268;12.302;2023-05-23T11:20:11;7.32;;;6.03;;
17727;SDS011;8984;49.268;12.302;2023-05-23T11:22:51;10.73;;;5.80;;
17727;SDS011;8984;49.268;12.302;2023-05-23T11:25:39;7.03;;;5.38;;
17727;SDS011;8984;49.268;12.302;2023-05-23T11:28:10;5.85;;;4.97;;
17727;SDS011;8984;49.268;12.302;2023-05-23T11:30:41;5.80;;;5.13;;
17727;SDS011;8984;49.268;12.302;2023-05-23T11:33:10;8.48;;;5.60;;
17727;SDS011;8984;49.268;12.302;2023-05-23T11:35:44;6.72;;;5.72;;
17727;SDS011;8984;49.268;12.302;2023-05-23T11:38:19;7.57;;;5.90;;
17727;SDS011;8984;49.268;12.302;2023-05-23T11:41:02;8.60;;;5.05;;
17727;SDS011;8984;49.268;12.302;2023-05-23T11:43:47;6.13;;;5.50;;
17727;SDS011;8984;49.268;12.302;2023-05-23T11:46:17;6.60;;;5.38;;
17727;SDS011;8984;49.268;12.302;2023-05-23T11:49:04;6.25;;;4.90;;
17727;SDS011;8984;49.268;12.302;2023-05-23T11:51:48;7.78;;;5.60;;
17727;SDS011;8984;49.268;12.302;2023-05-23T11:54:21;5.70;;;5.10;;
17727;SDS011;8984;49.268;12.302;2023-05-23T11:56:50;6.10;;;5.10;;
17727;SDS011;8984;49.268;12.302;2023-05-23T11:59:23;6.18;;;5.18;;
17727;SDS011;8984;49.268;12.302;2023-05-23T12:02:04;5.63;;;5.00;;
17727;SDS011;8984;49.268;12.302;2023-05-23T12:04:33;9.23;;;5.68;;
17727;SDS011;8984;49.268;12.302;2023-05-23T12:09:58;7.20;;;5.28;;
17727;SDS011;8984;49.268;12.302;2023-05-23T12:12:30;6.75;;;5.00;;
17727;SDS011;8984;49.268;12.302;2023-05-23T12:15:14;9.25;;;4.75;;
17727;SDS011;8984;49.268;12.302;2023-05-23T12:17:48;6.90;;;5.75;;
17727;SDS011;8984;49.268;12.302;2023-05-23T12:20:39;9.15;;;5.55;;
17727;SDS011;8984;49.268;12.302;2023-05-23T12:23:30;5.30;;;4.80;;
17727;SDS011;8984;49.268;12.302;2023-05-23T12:26:13;6.25;;;4.85;;
17727;SDS011;8984;49.268;12.302;2023-05-23T12:28:45;6.47;;;5.60;;
17727;SDS011;8984;49.268;12.302;2023-05-23T12:31:22;7.70;;;4.57;;
17727;SDS011;8984;49.268;12.302;2023-05-23T12:34:20;8.77;;;5.60;;
17727;SDS011;8984;49.268;12.302;2023-05-23T12:36:47;5.38;;;4.88;;
17727;SDS011;8984;49.268;12.302;2023-05-23T12:39:14;7.18;;;5.10;;
17727;SDS011;8984;49.268;12.302;2023-05-23T12:41:42;9.68;;;5.50;;
17727;SDS011;8984;49.268;12.302;2023-05-23T12:44:10;12.15;;;5.25;;
17727;SDS011;8984;49.268;12.302;2023-05-23T12:46:40;7.47;;;5.28;;
17727;SDS011;8984;49.268;12.302;2023-05-23T12:49:07;9.57;;;4.93;;
17727;SDS011;8984;49.268;12.302;2023-05-23T12:51:35;5.80;;;5.20;;
17727;SDS011;8984;49.268;12.302;2023-05-23T12:54:02;8.57;;;4.88;;
17727;SDS011;8984;49.268;12.302;2023-05-23T12:56:29;8.20;;;5.18;;
17727;SDS011;8984;49.268;12.302;2023-05-23T12:58:56;6.38;;;4.85;;
17727;SDS011;8984;49.268;12.302;2023-05-23T13:01:23;5.28;;;4.80;;
17727;SDS011;8984;49.268;12.302;2023-05-23T13:03:50;13.13;;;4.32;;
17727;SDS011;8984;49.268;12.302;2023-05-23T13:06:16;9.73;;;4.22;;
17727;SDS011;8984;49.268;12.302;2023-05-23T13:08:45;6.30;;;4.38;;
17727;SDS011;8984;49.268;12.302;2023-05-23T13:11:12;6.65;;;4.65;;
17727;SDS011;8984;49.268;12.302;2023-05-23T13:13:39;9.52;;;4.40;;
17727;SDS011;8984;49.268;12.302;2023-05-23T13:16:06;6.88;;;4.57;;
17727;SDS011;8984;49.268;12.302;2023-05-23T13:18:33;8.85;;;4.25;;
17727;SDS011;8984;49.268;12.302;2023-05-23T13:21:00;4.93;;;4.25;;
17727;SDS011;8984;49.268;12.302;2023-05-23T13:23:27;5.03;;;4.10;;
17727;SDS011;8984;49.268;12.302;2023-05-23T13:25:56;5.07;;;4.28;;
17727;SDS011;8984;49.268;12.302;2023-05-23T13:28:23;8.10;;;4.50;;
17727;SDS011;8984;49.268;12.302;2023-05-23T13:30:49;4.68;;;4.18;;
17727;SDS011;8984;49.268;12.302;2023-05-23T13:33:16;4.30;;;3.90;;
17727;SDS011;8984;49.268;12.302;2023-05-23T13:35:43;8.57;;;4.30;;
17727;SDS011;8984;49.268;12.302;2023-05-23T13:38:13;7.28;;;4.30;;
17727;SDS011;8984;49.268;12.302;2023-05-23T13:40:40;6.15;;;4.03;;
17727;SDS011;8984;49.268;12.302;2023-05-23T13:43:08;6.07;;;3.58;;
17727;SDS011;8984;49.268;12.302;2023-05-23T13:45:35;7.85;;;3.90;;
17727;SDS011;8984;49.268;12.302;2023-05-23T13:48:02;4.38;;;3.80;;
17727;SDS011;8984;49.268;12.302;2023-05-23T13:50:29;4.63;;;3.80;;
17727;SDS011;8984;49.268;12.302;2023-05-23T13:52:56;3.92;;;3.30;;
17727;SDS011;8984;49.268;12.302;2023-05-23T13:55:22;4.72;;;3.83;;
17727;SDS011;8984;49.268;12.302;2023-05-23T13:57:49;4.20;;;3.80;;
17727;SDS011;8984;49.268;12.302;2023-05-23T14:00:18;10.07;;;3.60;;
17727;SDS011;8984;49.268;12.302;2023-05-23T14:02:45;8.20;;;3.38;;
17727;SDS011;8984;49.268;12.302;2023-05-23T14:05:12;5.18;;;2.72;;
17727;SDS011;8984;49.268;12.302;2023-05-23T14:07:39;4.28;;;2.75;;
17727;SDS011;8984;49.268;12.302;2023-05-23T14:10:11;5.25;;;2.80;;
17727;SDS011;8984;49.268;12.302;2023-05-23T14:12:38;7.78;;;2.60;;
17727;SDS011;8984;49.268;12.302;2023-05-23T14:15:05;4.43;;;2.50;;
17727;SDS011;8984;49.268;12.302;2023-05-23T14:17:34;3.38;;;2.30;;
17727;SDS011;8984;49.268;12.302;2023-05-23T14:20:00;7.00;;;2.00;;
17727;SDS011;8984;49.268;12.302;2023-05-23T14:22:28;3.28;;;2.05;;
17727;SDS011;8984;49.268;12.302;2023-05-23T14:24:55;10.45;;;1.80;;
17727;SDS011;8984;49.268;12.302;2023-05-23T14:27:22;3.42;;;2.10;;
17727;SDS011;8984;49.268;12.302;2023-05-23T14:29:49;2.00;;;1.67;;
17727;SDS011;8984;49.268;12.302;2023-05-23T14:32:16;2.88;;;1.73;;
17727;SDS011;8984;49.268;12.302;2023-05-23T14:34:44;3.80;;;1.98;;
17727;SDS011;8984;49.268;12.302;2023-05-23T14:37:11;3.08;;;1.80;;
17727;SDS011;8984;49.268;12.302;2023-05-23T14:39:38;1.92;;;1.80;;
17727;SDS011;8984;49.268;12.302;2023-05-23T14:42:04;2.63;;;1.73;;
17727;SDS011;8984;49.268;12.302;2023-05-23T14:44:31;2.03;;;1.75;;
17727;SDS011;8984;49.268;12.302;2023-05-23T14:46:58;3.65;;;1.73;;
17727;SDS011;8984;49.268;12.302;2023-05-23T14:49:25;2.00;;;1.80;;
17727;SDS011;8984;49.268;12.302;2023-05-23T14:51:53;2.95;;;1.70;;
17727;SDS011;8984;49.268;12.302;2023-05-23T14:54:20;1.73;;;1.63;;
17727;SDS011;8984;49.268;12.302;2023-05-23T14:56:47;2.10;;;1.70;;
17727;SDS011;8984;49.268;12.302;2023-05-23T14:59:15;2.22;;;1.67;;
17727;SDS011;8984;49.268;12.302;2023-05-23T15:01:41;2.53;;;1.50;;